This is the latest recevied weather packets stored in our database for station/object KD4UFD. If no packets are shown the sender has not sent any weather packets the latest 1 day(s).
| Time | Temp. | Humidity | Pressure | Rain* | Wind** | Luminosity | Snow |
|---|---|---|---|---|---|---|---|
| 1777991789 | 19.44° C | 60% | 1014.5 hPa | 0 mm | 1.79 m/s, 273° | 424 W/m² | - |
| 1777991486 | 20° C | 60% | 1014.6 hPa | 0 mm | 0.89 m/s, 205° | 263 W/m² | - |
| 1777991183 | 20° C | 61% | 1014.5 hPa | 0 mm | 0.89 m/s, 229° | 248 W/m² | - |
| 1777990880 | 20° C | 60% | 1014.5 hPa | 0 mm | 0.45 m/s, 196° | 260 W/m² | - |
| 1777990578 | 20.56° C | 61% | 1014.5 hPa | 0 mm | 0 m/s | 296 W/m² | - |
| 1777990274 | 20.56° C | 61% | 1014.7 hPa | 0 mm | 0 m/s | 387 W/m² | - |
| 1777989971 | 20° C | 63% | 1014.6 hPa | 0 mm | 0 m/s | 403 W/m² | - |
| 1777989668 | 19.44° C | 62% | 1014.8 hPa | 0 mm | 0.45 m/s, 235° | 399 W/m² | - |
| 1777989364 | 19.44° C | 63% | 1014.7 hPa | 0 mm | 0 m/s | 436 W/m² | - |
| 1777989061 | 19.44° C | 65% | 1014.7 hPa | 0 mm | 0 m/s | 452 W/m² | - |
| 1777988756 | 18.89° C | 64% | 1014.8 hPa | 0 mm | 0.45 m/s, 132° | 449 W/m² | - |
| 1777988454 | 18.33° C | 67% | 1014.6 hPa | 0 mm | 0.89 m/s, 237° | 400 W/m² | - |
| 1777988150 | 18.33° C | 65% | 1014.6 hPa | 0 mm | 0.45 m/s, 196° | 342 W/m² | - |
| 1777987846 | 18.89° C | 64% | 1014.9 hPa | 0 mm | 1.34 m/s, 190° | 291 W/m² | - |
| 1777987543 | 18.33° C | 67% | 1014.7 hPa | 0 mm | 0.45 m/s, 10° | 292 W/m² | - |
| 1777987241 | 17.78° C | 68% | 1014.9 hPa | 0 mm | 0.45 m/s, 285° | 274 W/m² | - |
| 1777986937 | 17.78° C | 69% | 1014.8 hPa | 0 mm | 0.45 m/s, 191° | 287 W/m² | - |
| 1777986636 | 17.78° C | 68% | 1014.7 hPa | 0 mm | 0.89 m/s, 216° | 249 W/m² | - |
| 1777986333 | 17.78° C | 68% | 1014.8 hPa | 0 mm | 0 m/s | 210 W/m² | - |
| 1777986032 | 17.22° C | 71% | 1014.8 hPa | 0 mm | 0 m/s | 227 W/m² | - |
| 1777985727 | 17.22° C | 72% | 1014.6 hPa | 0 mm | 0.45 m/s, 228° | 217 W/m² | - |
| 1777985424 | 16.67° C | 73% | 1014.7 hPa | 0 mm | 0 m/s | 235 W/m² | - |
| 1777985121 | 16.11° C | 76% | 1014.7 hPa | 0 mm | 0 m/s | 225 W/m² | - |
| 1777984817 | 16.11° C | 75% | 1014.5 hPa | 0 mm | 0.45 m/s, 202° | 189 W/m² | - |
| 1777984514 | 16.11° C | 74% | 1014.4 hPa | 0 mm | 0 m/s | 148 W/m² | - |
* Rain latest hour (hover to see other rain measurements)
** Current wind speed in m/s (hover to see current wind gust speed)